sensor_id;sensor_type;location;lat;lon;timestamp;P1;durP1;ratioP1;P2;durP2;ratioP2
20383;SDS011;46458;50.966;7.002;2022-09-13T00:01:35;4.15;;;3.53;;
20383;SDS011;46458;50.966;7.002;2022-09-13T00:04:09;5.47;;;3.97;;
20383;SDS011;46458;50.966;7.002;2022-09-13T00:06:38;3.88;;;3.35;;
20383;SDS011;46458;50.966;7.002;2022-09-13T00:09:06;5.32;;;3.80;;
20383;SDS011;46458;50.966;7.002;2022-09-13T00:11:35;4.22;;;3.50;;
20383;SDS011;46458;50.966;7.002;2022-09-13T00:14:04;3.55;;;3.25;;
20383;SDS011;46458;50.966;7.002;2022-09-13T00:16:42;3.58;;;3.28;;
20383;SDS011;46458;50.966;7.002;2022-09-13T00:19:18;3.83;;;3.38;;
20383;SDS011;46458;50.966;7.002;2022-09-13T00:21:47;4.47;;;3.58;;
20383;SDS011;46458;50.966;7.002;2022-09-13T00:24:16;4.03;;;3.63;;
20383;SDS011;46458;50.966;7.002;2022-09-13T00:26:45;4.07;;;3.65;;
20383;SDS011;46458;50.966;7.002;2022-09-13T00:29:13;5.10;;;4.10;;
20383;SDS011;46458;50.966;7.002;2022-09-13T00:31:47;5.82;;;3.90;;
20383;SDS011;46458;50.966;7.002;2022-09-13T00:34:19;4.82;;;3.92;;
20383;SDS011;46458;50.966;7.002;2022-09-13T00:36:48;4.13;;;3.72;;
20383;SDS011;46458;50.966;7.002;2022-09-13T00:39:20;4.25;;;3.85;;
20383;SDS011;46458;50.966;7.002;2022-09-13T00:41:49;3.80;;;3.38;;
20383;SDS011;46458;50.966;7.002;2022-09-13T00:47:24;4.75;;;3.65;;
20383;SDS011;46458;50.966;7.002;2022-09-13T00:50:00;4.55;;;3.70;;
20383;SDS011;46458;50.966;7.002;2022-09-13T00:52:32;4.47;;;3.83;;
20383;SDS011;46458;50.966;7.002;2022-09-13T00:55:04;6.85;;;3.30;;
20383;SDS011;46458;50.966;7.002;2022-09-13T00:57:36;8.10;;;3.90;;
20383;SDS011;46458;50.966;7.002;2022-09-13T01:00:09;4.38;;;3.65;;
20383;SDS011;46458;50.966;7.002;2022-09-13T01:02:43;5.13;;;4.00;;
20383;SDS011;46458;50.966;7.002;2022-09-13T01:05:18;5.28;;;4.40;;
20383;SDS011;46458;50.966;7.002;2022-09-13T01:07:52;4.50;;;3.72;;
20383;SDS011;46458;50.966;7.002;2022-09-13T01:10:21;6.90;;;4.28;;
20383;SDS011;46458;50.966;7.002;2022-09-13T01:12:53;5.20;;;3.93;;
20383;SDS011;46458;50.966;7.002;2022-09-13T01:15:30;5.60;;;3.90;;
20383;SDS011;46458;50.966;7.002;2022-09-13T01:17:59;4.50;;;3.95;;
20383;SDS011;46458;50.966;7.002;2022-09-13T01:20:36;5.07;;;4.03;;
20383;SDS011;46458;50.966;7.002;2022-09-13T01:23:42;6.22;;;4.47;;
20383;SDS011;46458;50.966;7.002;2022-09-13T01:26:34;6.25;;;3.88;;
20383;SDS011;46458;50.966;7.002;2022-09-13T01:29:29;5.37;;;3.60;;
20383;SDS011;46458;50.966;7.002;2022-09-13T01:32:15;8.07;;;3.67;;
20383;SDS011;46458;50.966;7.002;2022-09-13T01:34:54;6.22;;;3.88;;
20383;SDS011;46458;50.966;7.002;2022-09-13T01:37:45;5.93;;;3.70;;
20383;SDS011;46458;50.966;7.002;2022-09-13T01:40:27;5.00;;;4.20;;
20383;SDS011;46458;50.966;7.002;2022-09-13T01:43:22;4.20;;;3.53;;
20383;SDS011;46458;50.966;7.002;2022-09-13T01:46:01;5.10;;;3.93;;
20383;SDS011;46458;50.966;7.002;2022-09-13T01:48:39;4.57;;;3.90;;
20383;SDS011;46458;50.966;7.002;2022-09-13T01:51:20;6.30;;;4.20;;
20383;SDS011;46458;50.966;7.002;2022-09-13T01:53:57;4.83;;;3.80;;
20383;SDS011;46458;50.966;7.002;2022-09-13T01:56:35;4.30;;;3.90;;
20383;SDS011;46458;50.966;7.002;2022-09-13T01:59:11;4.97;;;3.63;;
20383;SDS011;46458;50.966;7.002;2022-09-13T02:01:46;4.30;;;3.90;;
20383;SDS011;46458;50.966;7.002;2022-09-13T02:04:26;4.63;;;3.93;;
20383;SDS011;46458;50.966;7.002;2022-09-13T02:07:02;4.83;;;4.07;;
20383;SDS011;46458;50.966;7.002;2022-09-13T02:09:39;5.00;;;3.67;;
20383;SDS011;46458;50.966;7.002;2022-09-13T02:12:13;5.53;;;4.30;;
20383;SDS011;46458;50.966;7.002;2022-09-13T02:14:47;4.83;;;4.13;;
20383;SDS011;46458;50.966;7.002;2022-09-13T02:17:23;5.53;;;4.17;;
20383;SDS011;46458;50.966;7.002;2022-09-13T02:19:58;5.25;;;3.80;;
20383;SDS011;46458;50.966;7.002;2022-09-13T02:22:31;5.85;;;3.88;;
20383;SDS011;46458;50.966;7.002;2022-09-13T02:25:03;8.27;;;4.03;;
20383;SDS011;46458;50.966;7.002;2022-09-13T02:27:39;5.63;;;4.27;;
20383;SDS011;46458;50.966;7.002;2022-09-13T02:30:14;6.27;;;4.27;;
20383;SDS011;46458;50.966;7.002;2022-09-13T02:32:44;4.30;;;3.90;;
20383;SDS011;46458;50.966;7.002;2022-09-13T02:35:23;4.23;;;3.77;;
20383;SDS011;46458;50.966;7.002;2022-09-13T02:37:59;6.73;;;3.73;;
20383;SDS011;46458;50.966;7.002;2022-09-13T02:40:36;5.50;;;3.73;;
20383;SDS011;46458;50.966;7.002;2022-09-13T02:43:08;6.95;;;4.38;;
20383;SDS011;46458;50.966;7.002;2022-09-13T02:45:41;6.57;;;3.77;;
20383;SDS011;46458;50.966;7.002;2022-09-13T02:48:20;5.70;;;3.67;;
20383;SDS011;46458;50.966;7.002;2022-09-13T02:51:01;4.30;;;3.90;;
20383;SDS011;46458;50.966;7.002;2022-09-13T02:53:35;4.40;;;4.00;;
20383;SDS011;46458;50.966;7.002;2022-09-13T02:56:11;8.77;;;4.33;;
20383;SDS011;46458;50.966;7.002;2022-09-13T02:58:45;6.60;;;4.10;;
20383;SDS011;46458;50.966;7.002;2022-09-13T03:01:19;4.57;;;4.10;;
20383;SDS011;46458;50.966;7.002;2022-09-13T03:03:50;6.43;;;4.40;;
20383;SDS011;46458;50.966;7.002;2022-09-13T03:06:24;5.00;;;4.03;;
20383;SDS011;46458;50.966;7.002;2022-09-13T03:08:55;6.17;;;3.93;;
20383;SDS011;46458;50.966;7.002;2022-09-13T03:11:34;4.10;;;3.70;;
20383;SDS011;46458;50.966;7.002;2022-09-13T03:14:17;4.33;;;3.70;;
20383;SDS011;46458;50.966;7.002;2022-09-13T03:17:05;6.57;;;4.30;;
20383;SDS011;46458;50.966;7.002;2022-09-13T03:19:47;7.53;;;4.87;;
20383;SDS011;46458;50.966;7.002;2022-09-13T03:25:37;8.83;;;4.30;;
20383;SDS011;46458;50.966;7.002;2022-09-13T03:28:18;5.13;;;4.27;;
20383;SDS011;46458;50.966;7.002;2022-09-13T03:30:53;5.65;;;3.88;;
20383;SDS011;46458;50.966;7.002;2022-09-13T03:33:31;7.43;;;4.03;;
20383;SDS011;46458;50.966;7.002;2022-09-13T03:36:08;7.83;;;3.87;;
20383;SDS011;46458;50.966;7.002;2022-09-13T03:38:44;6.43;;;4.37;;
20383;SDS011;46458;50.966;7.002;2022-09-13T03:41:18;4.72;;;4.10;;
20383;SDS011;46458;50.966;7.002;2022-09-13T03:43:50;6.22;;;4.03;;
20383;SDS011;46458;50.966;7.002;2022-09-13T03:46:24;4.20;;;3.60;;
20383;SDS011;46458;50.966;7.002;2022-09-13T03:48:59;4.33;;;3.93;;
20383;SDS011;46458;50.966;7.002;2022-09-13T03:51:30;4.00;;;3.60;;
20383;SDS011;46458;50.966;7.002;2022-09-13T03:54:03;5.07;;;4.00;;
20383;SDS011;46458;50.966;7.002;2022-09-13T03:56:39;4.23;;;3.83;;
20383;SDS011;46458;50.966;7.002;2022-09-13T03:59:08;4.83;;;3.87;;
20383;SDS011;46458;50.966;7.002;2022-09-13T04:01:37;4.27;;;3.87;;
20383;SDS011;46458;50.966;7.002;2022-09-13T04:04:06;4.90;;;3.55;;
20383;SDS011;46458;50.966;7.002;2022-09-13T04:06:35;4.67;;;4.10;;
20383;SDS011;46458;50.966;7.002;2022-09-13T04:09:06;4.00;;;3.60;;
20383;SDS011;46458;50.966;7.002;2022-09-13T04:11:36;4.57;;;4.07;;
20383;SDS011;46458;50.966;7.002;2022-09-13T04:14:05;4.15;;;3.75;;
20383;SDS011;46458;50.966;7.002;2022-09-13T04:16:35;5.60;;;3.73;;
20383;SDS011;46458;50.966;7.002;2022-09-13T04:19:03;5.47;;;4.15;;
20383;SDS011;46458;50.966;7.002;2022-09-13T04:21:32;5.17;;;3.73;;
20383;SDS011;46458;50.966;7.002;2022-09-13T04:24:02;4.20;;;3.80;;
20383;SDS011;46458;50.966;7.002;2022-09-13T04:26:34;4.80;;;3.73;;
20383;SDS011;46458;50.966;7.002;2022-09-13T04:29:03;4.37;;;3.73;;
20383;SDS011;46458;50.966;7.002;2022-09-13T04:31:34;4.80;;;3.70;;
20383;SDS011;46458;50.966;7.002;2022-09-13T04:34:03;4.13;;;3.73;;
20383;SDS011;46458;50.966;7.002;2022-09-13T04:36:38;3.92;;;3.53;;
20383;SDS011;46458;50.966;7.002;2022-09-13T04:39:06;5.95;;;4.32;;
20383;SDS011;46458;50.966;7.002;2022-09-13T04:41:38;6.88;;;3.90;;
20383;SDS011;46458;50.966;7.002;2022-09-13T04:44:09;4.90;;;3.67;;
20383;SDS011;46458;50.966;7.002;2022-09-13T04:46:39;3.78;;;3.40;;
20383;SDS011;46458;50.966;7.002;2022-09-13T04:49:09;4.85;;;3.80;;
20383;SDS011;46458;50.966;7.002;2022-09-13T04:51:39;3.85;;;3.45;;
20383;SDS011;46458;50.966;7.002;2022-09-13T04:54:08;4.25;;;3.60;;
20383;SDS011;46458;50.966;7.002;2022-09-13T04:56:40;4.22;;;3.60;;
20383;SDS011;46458;50.966;7.002;2022-09-13T04:59:10;5.75;;;3.80;;
20383;SDS011;46458;50.966;7.002;2022-09-13T05:01:39;6.65;;;4.00;;
20383;SDS011;46458;50.966;7.002;2022-09-13T05:04:10;5.47;;;3.28;;
20383;SDS011;46458;50.966;7.002;2022-09-13T05:06:39;4.25;;;3.83;;
20383;SDS011;46458;50.966;7.002;2022-09-13T05:09:09;6.13;;;4.22;;
20383;SDS011;46458;50.966;7.002;2022-09-13T05:11:42;4.68;;;4.00;;
20383;SDS011;46458;50.966;7.002;2022-09-13T05:14:12;4.80;;;3.53;;
20383;SDS011;46458;50.966;7.002;2022-09-13T05:16:40;5.47;;;3.78;;
20383;SDS011;46458;50.966;7.002;2022-09-13T05:19:10;5.07;;;3.90;;
20383;SDS011;46458;50.966;7.002;2022-09-13T05:21:39;4.63;;;3.40;;
20383;SDS011;46458;50.966;7.002;2022-09-13T05:24:09;4.65;;;3.70;;
20383;SDS011;46458;50.966;7.002;2022-09-13T05:26:38;3.67;;;3.10;;
20383;SDS011;46458;50.966;7.002;2022-09-13T05:29:11;4.07;;;3.63;;
20383;SDS011;46458;50.966;7.002;2022-09-13T05:31:40;6.15;;;4.00;;
20383;SDS011;46458;50.966;7.002;2022-09-13T05:34:13;4.72;;;3.60;;
20383;SDS011;46458;50.966;7.002;2022-09-13T05:36:43;7.00;;;4.10;;
20383;SDS011;46458;50.966;7.002;2022-09-13T05:39:15;4.80;;;4.03;;
20383;SDS011;46458;50.966;7.002;2022-09-13T05:41:47;4.30;;;3.78;;
20383;SDS011;46458;50.966;7.002;2022-09-13T05:44:18;6.40;;;4.15;;
20383;SDS011;46458;50.966;7.002;2022-09-13T05:46:47;6.57;;;3.70;;
20383;SDS011;46458;50.966;7.002;2022-09-13T05:49:19;4.00;;;3.60;;
20383;SDS011;46458;50.966;7.002;2022-09-13T05:51:48;4.78;;;4.03;;
20383;SDS011;46458;50.966;7.002;2022-09-13T05:54:17;5.10;;;4.10;;
20383;SDS011;46458;50.966;7.002;2022-09-13T05:56:45;8.75;;;4.47;;
20383;SDS011;46458;50.966;7.002;2022-09-13T05:59:19;8.18;;;3.95;;
20383;SDS011;46458;50.966;7.002;2022-09-13T06:01:48;6.45;;;3.88;;
20383;SDS011;46458;50.966;7.002;2022-09-13T06:04:17;5.80;;;3.75;;
20383;SDS011;46458;50.966;7.002;2022-09-13T06:06:45;4.68;;;4.00;;
20383;SDS011;46458;50.966;7.002;2022-09-13T06:09:14;7.18;;;4.03;;
20383;SDS011;46458;50.966;7.002;2022-09-13T06:11:43;7.20;;;4.43;;
20383;SDS011;46458;50.966;7.002;2022-09-13T06:14:12;5.32;;;4.07;;
20383;SDS011;46458;50.966;7.002;2022-09-13T06:16:43;6.13;;;4.13;;
20383;SDS011;46458;50.966;7.002;2022-09-13T06:19:12;7.95;;;4.13;;
20383;SDS011;46458;50.966;7.002;2022-09-13T06:21:41;5.15;;;4.15;;
20383;SDS011;46458;50.966;7.002;2022-09-13T06:24:10;6.40;;;4.28;;
20383;SDS011;46458;50.966;7.002;2022-09-13T06:26:39;6.13;;;3.88;;
20383;SDS011;46458;50.966;7.002;2022-09-13T06:29:09;4.55;;;3.90;;
20383;SDS011;46458;50.966;7.002;2022-09-13T06:31:38;8.05;;;3.67;;
20383;SDS011;46458;50.966;7.002;2022-09-13T06:34:12;5.13;;;4.00;;
20383;SDS011;46458;50.966;7.002;2022-09-13T06:36:41;5.70;;;4.38;;
20383;SDS011;46458;50.966;7.002;2022-09-13T06:39:11;6.35;;;4.22;;
20383;SDS011;46458;50.966;7.002;2022-09-13T06:41:40;4.35;;;3.45;;
20383;SDS011;46458;50.966;7.002;2022-09-13T06:44:09;5.28;;;4.03;;
20383;SDS011;46458;50.966;7.002;2022-09-13T06:46:38;6.63;;;4.60;;
20383;SDS011;46458;50.966;7.002;2022-09-13T06:49:08;5.78;;;4.05;;
20383;SDS011;46458;50.966;7.002;2022-09-13T06:51:40;5.20;;;4.53;;
20383;SDS011;46458;50.966;7.002;2022-09-13T06:54:08;8.40;;;4.50;;
20383;SDS011;46458;50.966;7.002;2022-09-13T06:56:37;5.90;;;3.97;;
20383;SDS011;46458;50.966;7.002;2022-09-13T06:59:07;4.40;;;4.00;;
20383;SDS011;46458;50.966;7.002;2022-09-13T07:01:37;4.75;;;3.78;;
20383;SDS011;46458;50.966;7.002;2022-09-13T07:04:11;4.97;;;4.07;;
20383;SDS011;46458;50.966;7.002;2022-09-13T07:06:44;6.07;;;3.67;;
20383;SDS011;46458;50.966;7.002;2022-09-13T07:09:15;3.90;;;3.50;;
20383;SDS011;46458;50.966;7.002;2022-09-13T07:11:46;6.82;;;4.00;;
20383;SDS011;46458;50.966;7.002;2022-09-13T07:14:17;4.88;;;3.83;;
20383;SDS011;46458;50.966;7.002;2022-09-13T07:16:47;5.30;;;3.90;;
20383;SDS011;46458;50.966;7.002;2022-09-13T07:19:19;6.57;;;4.13;;
20383;SDS011;46458;50.966;7.002;2022-09-13T07:21:53;7.30;;;4.15;;
20383;SDS011;46458;50.966;7.002;2022-09-13T07:24:24;5.53;;;4.30;;
20383;SDS011;46458;50.966;7.002;2022-09-13T07:26:53;6.35;;;3.30;;
20383;SDS011;46458;50.966;7.002;2022-09-13T07:29:25;5.75;;;3.47;;
20383;SDS011;46458;50.966;7.002;2022-09-13T07:31:59;4.22;;;3.60;;
20383;SDS011;46458;50.966;7.002;2022-09-13T07:34:28;5.05;;;4.00;;
20383;SDS011;46458;50.966;7.002;2022-09-13T07:36:59;6.55;;;3.90;;
20383;SDS011;46458;50.966;7.002;2022-09-13T07:39:28;6.93;;;3.90;;
20383;SDS011;46458;50.966;7.002;2022-09-13T07:41:57;6.65;;;4.05;;
20383;SDS011;46458;50.966;7.002;2022-09-13T07:44:25;5.30;;;4.05;;
20383;SDS011;46458;50.966;7.002;2022-09-13T07:46:57;6.50;;;4.13;;
20383;SDS011;46458;50.966;7.002;2022-09-13T07:49:26;3.95;;;3.50;;
20383;SDS011;46458;50.966;7.002;2022-09-13T07:51:55;4.32;;;3.90;;
20383;SDS011;46458;50.966;7.002;2022-09-13T07:54:26;5.28;;;3.90;;
20383;SDS011;46458;50.966;7.002;2022-09-13T07:56:55;4.32;;;3.85;;
20383;SDS011;46458;50.966;7.002;2022-09-13T07:59:24;4.88;;;4.20;;
20383;SDS011;46458;50.966;7.002;2022-09-13T08:01:53;7.07;;;3.85;;
20383;SDS011;46458;50.966;7.002;2022-09-13T08:04:22;7.88;;;3.90;;
20383;SDS011;46458;50.966;7.002;2022-09-13T08:06:53;8.82;;;4.00;;
20383;SDS011;46458;50.966;7.002;2022-09-13T08:09:26;5.22;;;3.38;;
20383;SDS011;46458;50.966;7.002;2022-09-13T08:11:55;6.63;;;3.78;;
20383;SDS011;46458;50.966;7.002;2022-09-13T08:14:24;8.82;;;3.67;;
20383;SDS011;46458;50.966;7.002;2022-09-13T08:16:53;5.15;;;3.80;;
20383;SDS011;46458;50.966;7.002;2022-09-13T08:19:22;5.65;;;4.03;;
20383;SDS011;46458;50.966;7.002;2022-09-13T08:21:51;6.40;;;3.80;;
20383;SDS011;46458;50.966;7.002;2022-09-13T08:24:22;6.97;;;3.90;;
20383;SDS011;46458;50.966;7.002;2022-09-13T08:26:55;4.13;;;3.17;;
20383;SDS011;46458;50.966;7.002;2022-09-13T08:29:27;4.10;;;3.45;;
20383;SDS011;46458;50.966;7.002;2022-09-13T08:31:56;4.88;;;3.30;;
20383;SDS011;46458;50.966;7.002;2022-09-13T08:34:25;4.50;;;3.40;;
20383;SDS011;46458;50.966;7.002;2022-09-13T08:36:54;6.22;;;3.00;;
20383;SDS011;46458;50.966;7.002;2022-09-13T08:39:22;7.78;;;3.47;;
20383;SDS011;46458;50.966;7.002;2022-09-13T08:42:00;7.40;;;3.65;;
20383;SDS011;46458;50.966;7.002;2022-09-13T08:44:36;5.55;;;3.55;;
20383;SDS011;46458;50.966;7.002;2022-09-13T08:47:17;10.27;;;6.28;;
20383;SDS011;46458;50.966;7.002;2022-09-13T08:49:59;5.53;;;3.67;;
20383;SDS011;46458;50.966;7.002;2022-09-13T08:52:34;4.65;;;2.80;;
20383;SDS011;46458;50.966;7.002;2022-09-13T08:55:13;7.22;;;3.55;;
20383;SDS011;46458;50.966;7.002;2022-09-13T08:57:54;3.85;;;3.20;;
20383;SDS011;46458;50.966;7.002;2022-09-13T09:00:31;5.10;;;3.40;;
20383;SDS011;46458;50.966;7.002;2022-09-13T09:03:11;5.40;;;3.10;;
20383;SDS011;46458;50.966;7.002;2022-09-13T09:05:49;5.40;;;3.05;;
20383;SDS011;46458;50.966;7.002;2022-09-13T09:08:27;6.43;;;3.65;;
20383;SDS011;46458;50.966;7.002;2022-09-13T09:11:01;5.35;;;3.10;;
20383;SDS011;46458;50.966;7.002;2022-09-13T09:13:39;3.42;;;2.83;;
20383;SDS011;46458;50.966;7.002;2022-09-13T09:16:15;5.50;;;2.60;;
20383;SDS011;46458;50.966;7.002;2022-09-13T09:18:54;4.15;;;3.22;;
20383;SDS011;46458;50.966;7.002;2022-09-13T09:21:29;3.58;;;2.60;;
20383;SDS011;46458;50.966;7.002;2022-09-13T09:24:00;4.18;;;2.60;;
20383;SDS011;46458;50.966;7.002;2022-09-13T09:26:31;5.13;;;2.42;;
20383;SDS011;46458;50.966;7.002;2022-09-13T09:29:15;3.00;;;2.55;;
20383;SDS011;46458;50.966;7.002;2022-09-13T09:31:48;2.75;;;2.30;;
20383;SDS011;46458;50.966;7.002;2022-09-13T09:34:31;4.13;;;2.40;;
20383;SDS011;46458;50.966;7.002;2022-09-13T09:37:14;5.47;;;3.00;;
20383;SDS011;46458;50.966;7.002;2022-09-13T09:39:49;4.68;;;2.50;;
20383;SDS011;46458;50.966;7.002;2022-09-13T09:42:21;4.30;;;2.95;;
20383;SDS011;46458;50.966;7.002;2022-09-13T09:44:59;4.07;;;3.38;;
20383;SDS011;46458;50.966;7.002;2022-09-13T09:47:35;5.50;;;2.85;;
20383;SDS011;46458;50.966;7.002;2022-09-13T09:50:10;4.63;;;3.20;;
20383;SDS011;46458;50.966;7.002;2022-09-13T09:52:43;5.38;;;2.95;;
20383;SDS011;46458;50.966;7.002;2022-09-13T09:55:23;4.25;;;2.72;;
20383;SDS011;46458;50.966;7.002;2022-09-13T09:57:55;3.28;;;2.60;;
20383;SDS011;46458;50.966;7.002;2022-09-13T10:00:31;3.38;;;2.85;;
20383;SDS011;46458;50.966;7.002;2022-09-13T10:03:02;5.97;;;2.80;;
20383;SDS011;46458;50.966;7.002;2022-09-13T10:05:33;3.38;;;2.55;;
20383;SDS011;46458;50.966;7.002;2022-09-13T10:08:03;4.53;;;2.75;;
20383;SDS011;46458;50.966;7.002;2022-09-13T10:10:35;3.22;;;2.80;;
20383;SDS011;46458;50.966;7.002;2022-09-13T10:13:06;6.75;;;3.00;;
20383;SDS011;46458;50.966;7.002;2022-09-13T10:15:53;3.40;;;2.55;;
20383;SDS011;46458;50.966;7.002;2022-09-13T10:18:24;2.58;;;2.38;;
20383;SDS011;46458;50.966;7.002;2022-09-13T10:20:59;4.30;;;2.53;;
20383;SDS011;46458;50.966;7.002;2022-09-13T10:23:30;3.80;;;2.53;;
20383;SDS011;46458;50.966;7.002;2022-09-13T10:26:03;2.60;;;2.40;;
20383;SDS011;46458;50.966;7.002;2022-09-13T10:28:40;3.05;;;2.50;;
20383;SDS011;46458;50.966;7.002;2022-09-13T10:31:15;2.97;;;2.38;;
20383;SDS011;46458;50.966;7.002;2022-09-13T10:33:51;5.90;;;2.22;;
20383;SDS011;46458;50.966;7.002;2022-09-13T10:36:26;4.60;;;2.60;;
20383;SDS011;46458;50.966;7.002;2022-09-13T10:38:57;3.45;;;2.13;;
20383;SDS011;46458;50.966;7.002;2022-09-13T10:41:29;3.88;;;2.20;;
20383;SDS011;46458;50.966;7.002;2022-09-13T10:44:03;4.80;;;2.47;;
20383;SDS011;46458;50.966;7.002;2022-09-13T10:46:37;4.13;;;2.75;;
20383;SDS011;46458;50.966;7.002;2022-09-13T10:49:08;3.90;;;2.30;;
20383;SDS011;46458;50.966;7.002;2022-09-13T10:54:54;3.50;;;2.67;;
20383;SDS011;46458;50.966;7.002;2022-09-13T10:57:43;3.25;;;2.55;;
20383;SDS011;46458;50.966;7.002;2022-09-13T11:00:14;2.60;;;2.40;;
20383;SDS011;46458;50.966;7.002;2022-09-13T11:05:40;5.38;;;2.85;;
20383;SDS011;46458;50.966;7.002;2022-09-13T11:08:18;3.85;;;2.95;;
20383;SDS011;46458;50.966;7.002;2022-09-13T11:10:57;3.10;;;2.80;;
20383;SDS011;46458;50.966;7.002;2022-09-13T11:13:37;2.88;;;2.10;;
20383;SDS011;46458;50.966;7.002;2022-09-13T11:16:17;3.78;;;2.60;;
20383;SDS011;46458;50.966;7.002;2022-09-13T11:19:04;3.40;;;2.38;;
20383;SDS011;46458;50.966;7.002;2022-09-13T11:21:47;5.22;;;2.53;;
20383;SDS011;46458;50.966;7.002;2022-09-13T11:27:30;5.18;;;2.47;;
20383;SDS011;46458;50.966;7.002;2022-09-13T11:30:10;2.60;;;2.20;;
20383;SDS011;46458;50.966;7.002;2022-09-13T11:32:46;3.33;;;2.30;;
20383;SDS011;46458;50.966;7.002;2022-09-13T11:35:35;2.80;;;1.88;;
20383;SDS011;46458;50.966;7.002;2022-09-13T11:38:21;3.65;;;2.30;;
20383;SDS011;46458;50.966;7.002;2022-09-13T11:41:11;2.63;;;1.80;;
20383;SDS011;46458;50.966;7.002;2022-09-13T11:43:59;3.60;;;2.15;;
20383;SDS011;46458;50.966;7.002;2022-09-13T11:46:49;3.00;;;2.20;;
20383;SDS011;46458;50.966;7.002;2022-09-13T11:49:30;2.65;;;2.00;;
20383;SDS011;46458;50.966;7.002;2022-09-13T11:52:14;2.67;;;2.03;;
20383;SDS011;46458;50.966;7.002;2022-09-13T11:54:56;1.77;;;1.50;;
20383;SDS011;46458;50.966;7.002;2022-09-13T11:57:33;2.80;;;1.83;;
20383;SDS011;46458;50.966;7.002;2022-09-13T12:00:12;4.03;;;2.35;;
20383;SDS011;46458;50.966;7.002;2022-09-13T12:02:48;3.25;;;2.15;;
20383;SDS011;46458;50.966;7.002;2022-09-13T12:05:25;3.33;;;2.40;;
20383;SDS011;46458;50.966;7.002;2022-09-13T12:08:03;3.35;;;2.17;;
20383;SDS011;46458;50.966;7.002;2022-09-13T12:10:38;4.28;;;1.75;;
20383;SDS011;46458;50.966;7.002;2022-09-13T12:13:14;4.57;;;1.67;;
20383;SDS011;46458;50.966;7.002;2022-09-13T12:15:46;4.00;;;1.90;;
20383;SDS011;46458;50.966;7.002;2022-09-13T12:18:20;2.33;;;1.42;;
20383;SDS011;46458;50.966;7.002;2022-09-13T12:20:54;1.55;;;1.45;;
20383;SDS011;46458;50.966;7.002;2022-09-13T12:23:30;2.95;;;1.58;;
20383;SDS011;46458;50.966;7.002;2022-09-13T12:26:03;2.40;;;1.90;;
20383;SDS011;46458;50.966;7.002;2022-09-13T12:28:38;3.38;;;1.80;;
20383;SDS011;46458;50.966;7.002;2022-09-13T12:31:12;3.50;;;1.95;;
20383;SDS011;46458;50.966;7.002;2022-09-13T12:33:44;2.20;;;1.73;;
20383;SDS011;46458;50.966;7.002;2022-09-13T12:36:32;2.47;;;1.50;;
20383;SDS011;46458;50.966;7.002;2022-09-13T12:42:38;3.75;;;1.67;;
20383;SDS011;46458;50.966;7.002;2022-09-13T12:45:39;4.75;;;2.00;;
20383;SDS011;46458;50.966;7.002;2022-09-13T12:48:37;1.98;;;1.70;;
20383;SDS011;46458;50.966;7.002;2022-09-13T12:51:39;2.38;;;1.58;;
20383;SDS011;46458;50.966;7.002;2022-09-13T12:54:35;2.40;;;1.70;;
20383;SDS011;46458;50.966;7.002;2022-09-13T12:57:33;3.22;;;1.80;;
20383;SDS011;46458;50.966;7.002;2022-09-13T13:00:19;2.10;;;1.70;;
20383;SDS011;46458;50.966;7.002;2022-09-13T13:02:51;2.25;;;1.48;;
20383;SDS011;46458;50.966;7.002;2022-09-13T13:05:30;2.05;;;1.63;;
20383;SDS011;46458;50.966;7.002;2022-09-13T13:08:02;4.50;;;3.63;;
20383;SDS011;46458;50.966;7.002;2022-09-13T13:10:34;2.83;;;1.65;;
20383;SDS011;46458;50.966;7.002;2022-09-13T13:13:14;2.00;;;1.52;;
20383;SDS011;46458;50.966;7.002;2022-09-13T13:15:53;1.88;;;1.65;;
20383;SDS011;46458;50.966;7.002;2022-09-13T13:18:28;1.95;;;1.67;;
20383;SDS011;46458;50.966;7.002;2022-09-13T13:21:18;1.63;;;1.30;;
20383;SDS011;46458;50.966;7.002;2022-09-13T13:26:55;1.60;;;1.40;;
20383;SDS011;46458;50.966;7.002;2022-09-13T13:29:28;1.88;;;1.58;;
20383;SDS011;46458;50.966;7.002;2022-09-13T13:32:05;2.28;;;1.88;;
20383;SDS011;46458;50.966;7.002;2022-09-13T13:34:40;1.50;;;1.40;;
20383;SDS011;46458;50.966;7.002;2022-09-13T13:40:11;2.63;;;1.77;;
20383;SDS011;46458;50.966;7.002;2022-09-13T13:42:47;2.70;;;1.52;;
20383;SDS011;46458;50.966;7.002;2022-09-13T13:45:23;1.90;;;1.65;;
20383;SDS011;46458;50.966;7.002;2022-09-13T13:48:07;4.38;;;1.73;;
20383;SDS011;46458;50.966;7.002;2022-09-13T13:53:43;2.22;;;1.75;;
20383;SDS011;46458;50.966;7.002;2022-09-13T13:59:03;1.88;;;1.50;;
20383;SDS011;46458;50.966;7.002;2022-09-13T14:01:45;2.10;;;1.60;;
20383;SDS011;46458;50.966;7.002;2022-09-13T14:04:38;1.42;;;1.30;;
20383;SDS011;46458;50.966;7.002;2022-09-13T14:07:42;2.10;;;1.70;;
20383;SDS011;46458;50.966;7.002;2022-09-13T14:10:33;2.05;;;1.30;;
20383;SDS011;46458;50.966;7.002;2022-09-13T14:13:18;2.42;;;1.48;;
20383;SDS011;46458;50.966;7.002;2022-09-13T14:15:58;1.65;;;1.55;;
20383;SDS011;46458;50.966;7.002;2022-09-13T14:18:39;1.52;;;1.42;;
20383;SDS011;46458;50.966;7.002;2022-09-13T14:21:18;2.28;;;1.30;;
20383;SDS011;46458;50.966;7.002;2022-09-13T14:23:49;2.45;;;1.70;;
20383;SDS011;46458;50.966;7.002;2022-09-13T14:26:18;2.15;;;1.42;;
20383;SDS011;46458;50.966;7.002;2022-09-13T14:28:48;1.95;;;1.52;;
20383;SDS011;46458;50.966;7.002;2022-09-13T14:31:17;2.22;;;1.58;;
20383;SDS011;46458;50.966;7.002;2022-09-13T14:33:49;1.95;;;1.33;;
20383;SDS011;46458;50.966;7.002;2022-09-13T14:36:20;1.60;;;1.50;;
20383;SDS011;46458;50.966;7.002;2022-09-13T14:38:53;3.17;;;1.85;;
20383;SDS011;46458;50.966;7.002;2022-09-13T14:41:28;2.25;;;1.60;;
20383;SDS011;46458;50.966;7.002;2022-09-13T14:44:14;3.55;;;1.50;;
20383;SDS011;46458;50.966;7.002;2022-09-13T14:46:44;2.90;;;1.38;;
20383;SDS011;46458;50.966;7.002;2022-09-13T14:49:22;2.10;;;1.90;;
20383;SDS011;46458;50.966;7.002;2022-09-13T14:51:54;1.50;;;1.40;;
20383;SDS011;46458;50.966;7.002;2022-09-13T14:54:27;2.38;;;1.60;;
20383;SDS011;46458;50.966;7.002;2022-09-13T14:57:01;2.03;;;1.25;;
20383;SDS011;46458;50.966;7.002;2022-09-13T14:59:33;1.65;;;1.48;;
20383;SDS011;46458;50.966;7.002;2022-09-13T15:02:15;1.60;;;1.30;;
20383;SDS011;46458;50.966;7.002;2022-09-13T15:04:49;1.85;;;1.30;;
20383;SDS011;46458;50.966;7.002;2022-09-13T15:07:21;2.45;;;1.50;;
20383;SDS011;46458;50.966;7.002;2022-09-13T15:09:54;1.70;;;1.40;;
20383;SDS011;46458;50.966;7.002;2022-09-13T15:12:27;7.22;;;2.00;;
20383;SDS011;46458;50.966;7.002;2022-09-13T15:18:02;4.40;;;1.90;;
20383;SDS011;46458;50.966;7.002;2022-09-13T15:20:48;3.92;;;1.40;;
20383;SDS011;46458;50.966;7.002;2022-09-13T15:23:22;4.22;;;1.65;;
20383;SDS011;46458;50.966;7.002;2022-09-13T15:25:58;3.03;;;1.80;;
20383;SDS011;46458;50.966;7.002;2022-09-13T15:28:32;3.85;;;1.50;;
20383;SDS011;46458;50.966;7.002;2022-09-13T15:31:18;3.20;;;1.80;;
20383;SDS011;46458;50.966;7.002;2022-09-13T15:33:48;2.42;;;1.30;;
20383;SDS011;46458;50.966;7.002;2022-09-13T15:36:48;3.05;;;2.25;;
20383;SDS011;46458;50.966;7.002;2022-09-13T15:39:40;1.70;;;1.42;;
20383;SDS011;46458;50.966;7.002;2022-09-13T15:42:11;1.38;;;1.27;;
20383;SDS011;46458;50.966;7.002;2022-09-13T15:44:40;3.40;;;1.30;;
20383;SDS011;46458;50.966;7.002;2022-09-13T15:47:10;5.18;;;1.30;;
20383;SDS011;46458;50.966;7.002;2022-09-13T15:49:49;3.70;;;1.60;;
20383;SDS011;46458;50.966;7.002;2022-09-13T15:52:19;2.00;;;1.50;;
20383;SDS011;46458;50.966;7.002;2022-09-13T15:54:48;2.83;;;1.50;;
20383;SDS011;46458;50.966;7.002;2022-09-13T15:57:20;2.92;;;1.63;;
20383;SDS011;46458;50.966;7.002;2022-09-13T15:59:50;2.25;;;1.70;;
20383;SDS011;46458;50.966;7.002;2022-09-13T16:02:21;1.92;;;1.45;;
20383;SDS011;46458;50.966;7.002;2022-09-13T16:04:55;2.22;;;1.42;;
20383;SDS011;46458;50.966;7.002;2022-09-13T16:07:24;2.85;;;1.65;;